Coleman, Kentucky
Current Conditions -  °F | °C
As of 11:15 PM on Thursday 27 Nov 2014 (Local Time) from KPBX Reporting Station
Light Snow Light Snow  
Wind Chill: 22°   Ceiling: 1400
Heat Index: 28°   Visibility: 7mi
Dew Point: 24°   Wind: 6mph
Humidity: 85%   Direction: 260°W
Pressure: 30.34"   Gusts: NA
Location:  37.4798°N, 82.1599°W
Report Text: KPBX 280415Z AUTO 26005KT 7SM -SN OVC014 M02/M04 A3034 RMK AO2 T10201042
Loading
Personal Weather Stations






























Interactive Weather Map New forecast layout! Learn more

10-Day Weather Forecast

Advertisements
Track Severe Weather on mobile